Time;durP1;ratioP1;P1;durP2;ratioP2;P2;SDS_P1;SDS_P2;PMS_P1;PMS_P2;Temp;Humidity;BMP_temperature;BMP_pressure;BME280_temperature;BME280_humidity;BME280_pressure;Samples;Min_cycle;Max_cycle;Signal;HPM_P1;HPM_P2
2021/12/03 00:01:43;;;;;;;;;;;;;;;;;;10437013;28;20044;-72
2021/12/03 00:06:46;;;;;;;6.13;3.23;;;;;;;;;;10443171;28;19952;-71
2021/12/03 00:11:50;;;;;;;7.70;3.03;;;;;;;;;;10444863;28;20097;-73
2021/12/03 00:16:52;;;;;;;;;;;;;;;;;;10446654;28;20075;-74
2021/12/03 00:21:55;;;;;;;4.90;1.77;;;;;;;;;;10440683;28;19916;-73
2021/12/03 00:26:59;;;;;;;5.40;2.80;;;;;;;;;;10445100;28;20041;-73
2021/12/03 00:32:02;;;;;;;;;;;;;;;;;;10440267;28;20043;-72
2021/12/03 00:37:05;;;;;;;3.13;1.53;;;;;;;;;;10445610;28;19917;-73
2021/12/03 00:42:14;;;;;;;6.30;3.30;;;;;;;;;;10442929;28;20076;-73
2021/12/03 00:47:17;;;;;;;6.57;2.63;;;;;;;;;;10444443;28;20025;-71
2021/12/03 00:52:19;;;;;;;7.50;3.60;;;;;;;;;;10438787;28;20384;-71
2021/12/03 00:57:24;;;;;;;2.57;1.30;;;;;;;;;;10443558;28;20033;-71
2021/12/03 01:02:26;;;;;;;;;;;;;;;;;;10441893;28;20079;-71
2021/12/03 01:07:29;;;;;;;10.60;3.47;;;;;;;;;;10447375;28;20023;-71
2021/12/03 01:12:33;;;;;;;18.13;5.17;;;;;;;;;;10444991;28;20068;-73
2021/12/03 01:17:36;;;;;;;;;;;;;;;;;;10443343;28;20758;-69
2021/12/03 01:22:39;;;;;;;0.67;0.47;;;;;;;;;;10431596;28;19935;-71
2021/12/03 01:27:43;;;;;;;3.93;1.73;;;;;;;;;;10453658;28;20403;-67
2021/12/03 01:32:46;;;;;;;;;;;;;;;;;;10439073;28;20124;-73
2021/12/03 01:37:49;;;;;;;15.30;3.93;;;;;;;;;;10443620;28;20062;-72
2021/12/03 01:42:53;;;;;;;11.07;3.93;;;;;;;;;;10438889;28;20110;-70
2021/12/03 01:47:56;;;;;;;9.00;3.70;;;;;;;;;;10439656;28;20037;-72
2021/12/03 01:52:59;;;;;;;1.70;1.23;;;;;;;;;;10433092;28;20102;-69
2021/12/03 01:58:03;;;;;;;3.03;1.70;;;;;;;;;;10438694;28;20045;-71
2021/12/03 02:03:07;;;;;;;9.20;3.47;;;;;;;;;;10439226;28;20037;-71
2021/12/03 02:08:10;;;;;;;5.72;2.75;;;;;;;;;;10435450;28;20067;-70
2021/12/03 02:13:16;;;;;;;8.20;2.83;;;;;;;;;;10434800;28;20131;-72
2021/12/03 02:18:19;;;;;;;7.50;2.87;;;;;;;;;;10435775;28;20059;-73
2021/12/03 02:23:24;;;;;;;5.53;2.03;;;;;;;;;;10438938;28;20453;-70
2021/12/03 02:28:34;;;;;;;10.13;4.00;;;;;;;;;;10439272;28;20033;-71
2021/12/03 02:33:38;;;;;;;4.97;2.60;;;;;;;;;;10432783;28;20120;-72
2021/12/03 02:38:42;;;;;;;9.13;3.70;;;;;;;;;;10438271;28;20041;-72
2021/12/03 02:43:46;;;;;;;7.80;3.00;;;;;;;;;;10469056;28;20378;-71
2021/12/03 02:48:49;;;;;;;8.77;3.47;;;;;;;;;;10437073;28;20520;-72
2021/12/03 02:53:54;;;;;;;6.82;2.83;;;;;;;;;;10438555;28;20049;-72
2021/12/03 02:58:56;;;;;;;;;;;;;;;;;;10436959;28;20045;-70
2021/12/03 03:04:00;;;;;;;7.97;3.93;;;;;;;;;;10435492;28;19920;-72
2021/12/03 03:09:08;;;;;;;8.77;4.18;;;;;;;;;;10434349;28;20048;-72
2021/12/03 03:14:10;;;;;;;9.07;2.73;;;;;;;;;;10437228;28;20049;-70
2021/12/03 03:19:14;;;;;;;13.03;4.53;;;;;;;;;;10435674;28;20044;-70
2021/12/03 03:24:18;;;;;;;7.85;2.97;;;;;;;;;;10438020;28;20128;-71
2021/12/03 03:29:22;;;;;;;5.77;2.53;;;;;;;;;;10446620;28;20064;-73
2021/12/03 03:34:25;;;;;;;4.33;2.10;;;;;;;;;;10453816;28;20103;-71
2021/12/03 03:39:29;;;;;;;4.67;1.83;;;;;;;;;;10450996;28;20033;-71
2021/12/03 03:44:32;;;;;;;4.13;2.10;;;;;;;;;;10441284;28;20135;-70
2021/12/03 03:49:36;;;;;;;5.63;2.67;;;;;;;;;;10444081;28;20114;-69
2021/12/03 03:54:40;;;;;;;9.97;3.97;;;;;;;;;;10447880;28;20532;-71
2021/12/03 03:59:43;;;;;;;9.63;2.97;;;;;;;;;;10442277;28;20132;-71
2021/12/03 04:04:46;;;;;;;6.20;1.67;;;;;;;;;;10441992;28;20102;-71
2021/12/03 04:09:50;;;;;;;11.90;3.80;;;;;;;;;;10443501;28;20065;-71
2021/12/03 04:14:53;;;;;;;6.50;2.70;;;;;;;;;;10443388;28;20136;-72
2021/12/03 04:19:56;;;;;;;10.10;4.03;;;;;;;;;;10438323;28;20048;-71
2021/12/03 04:25:01;;;;;;;5.30;1.73;;;;;;;;;;10445439;28;20041;-70
2021/12/03 04:30:06;;;;;;;3.63;1.30;;;;;;;;;;10438761;28;20063;-70
2021/12/03 04:35:10;;;;;;;9.97;3.60;;;;;;;;;;10430919;28;20048;-70
2021/12/03 04:40:15;;;;;;;8.57;2.72;;;;;;;;;;10470262;28;20049;-72
2021/12/03 04:45:19;;;;;;;10.93;3.27;;;;;;;;;;10441491;28;20132;-72
2021/12/03 04:50:24;;;;;;;5.88;3.05;;;;;;;;;;10445216;28;20398;-73
2021/12/03 04:55:28;;;;;;;5.87;2.67;;;;;;;;;;10440916;28;20103;-71
2021/12/03 05:00:32;;;;;;;7.50;3.10;;;;;;;;;;10441243;28;20457;-71
2021/12/03 05:05:36;;;;;;;2.70;1.37;;;;;;;;;;10440411;28;20127;-71
2021/12/03 05:10:41;;;;;;;4.73;2.07;;;;;;;;;;10443116;28;20800;-72
2021/12/03 05:15:44;;;;;;;3.30;2.00;;;;;;;;;;10440044;28;20045;-71
2021/12/03 05:20:49;;;;;;;9.13;3.63;;;;;;;;;;10441129;28;20516;-69
2021/12/03 05:25:53;;;;;;;3.10;1.33;;;;;;;;;;10438768;28;20049;-71
2021/12/03 05:30:56;;;;;;;4.47;2.37;;;;;;;;;;10437585;28;20041;-71
2021/12/03 05:35:59;;;;;;;2.00;1.27;;;;;;;;;;10437403;28;20033;-69
2021/12/03 05:41:03;;;;;;;4.07;2.17;;;;;;;;;;10440524;28;20048;-72
2021/12/03 05:46:06;;;;;;;;;;;;;;;;;;10439564;28;20057;-72
2021/12/03 05:51:10;;;;;;;3.93;1.93;;;;;;;;;;10440168;28;19931;-72
2021/12/03 05:56:14;;;;;;;3.08;1.13;;;;;;;;;;10438956;28;20033;-72
2021/12/03 06:01:17;;;;;;;;;;;;;;;;;;10441217;28;20056;-72
2021/12/03 06:06:21;;;;;;;3.77;2.20;;;;;;;;;;10434817;28;19943;-71
2021/12/03 06:11:25;;;;;;;7.13;2.90;;;;;;;;;;10439948;28;20457;-71
2021/12/03 06:16:28;;;;;;;6.97;2.37;;;;;;;;;;10439029;28;20087;-69
2021/12/03 06:21:31;;;;;;;7.13;2.97;;;;;;;;;;10438408;28;20109;-71
2021/12/03 06:26:35;;;;;;;5.03;1.97;;;;;;;;;;10439490;28;20056;-72
2021/12/03 06:31:38;;;;;;;;;;;;;;;;;;10437011;28;20091;-71
2021/12/03 06:36:40;;;;;;;9.77;4.13;;;;;;;;;;10434236;28;19920;-71
2021/12/03 06:41:45;;;;;;;3.60;1.50;;;;;;;;;;10439520;28;20233;-72
2021/12/03 06:46:48;;;;;;;2.53;2.00;;;;;;;;;;10432373;28;20500;-71
2021/12/03 06:51:52;;;;;;;3.47;1.60;;;;;;;;;;10438452;28;20116;-70
2021/12/03 06:56:56;;;;;;;5.53;1.55;;;;;;;;;;10445503;28;20045;-71
2021/12/03 07:01:59;;;;;;;;;;;;;;;;;;10445181;28;20515;-72
2021/12/03 07:07:03;;;;;;;6.43;2.37;;;;;;;;;;10443991;28;19925;-71
2021/12/03 07:12:09;;;;;;;5.00;3.00;;;;;;;;;;10446459;28;20041;-71
2021/12/03 07:17:12;;;;;;;12.53;3.63;;;;;;;;;;10442258;28;20136;-72
2021/12/03 07:22:15;;;;;;;4.63;2.17;;;;;;;;;;10439285;28;20378;-71
2021/12/03 07:27:20;;;;;;;6.17;1.87;;;;;;;;;;10439337;28;20110;-71
2021/12/03 07:32:24;;;;;;;5.97;2.37;;;;;;;;;;10436119;28;20353;-72
2021/12/03 07:37:27;;;;;;;3.83;1.93;;;;;;;;;;10440529;28;20088;-72
2021/12/03 07:42:31;;;;;;;10.03;3.53;;;;;;;;;;10443190;28;20094;-69
2021/12/03 07:47:34;;;;;;;12.27;4.00;;;;;;;;;;10438678;28;20134;-71
2021/12/03 07:52:37;;;;;;;7.87;3.13;;;;;;;;;;10447100;28;20088;-69
2021/12/03 07:57:42;;;;;;;11.27;3.63;;;;;;;;;;10444327;28;20052;-70
2021/12/03 08:02:44;;;;;;;;;;;;;;;;;;10438998;28;20048;-71
2021/12/03 08:07:49;;;;;;;7.77;3.03;;;;;;;;;;10442534;28;19982;-68
2021/12/03 08:12:53;;;;;;;6.47;2.93;;;;;;;;;;10440532;28;20056;-71
2021/12/03 08:17:56;;;;;;;6.43;2.72;;;;;;;;;;10437154;28;20045;-71
2021/12/03 08:22:59;;;;;;;3.67;2.40;;;;;;;;;;10440569;28;20049;-70
2021/12/03 08:28:04;;;;;;;9.52;4.00;;;;;;;;;;10435274;28;20049;-70
2021/12/03 08:33:07;;;;;;;9.40;4.10;;;;;;;;;;10437913;28;20536;-71
2021/12/03 08:38:10;;;;;;;8.27;3.75;;;;;;;;;;10437226;28;20041;-70
2021/12/03 08:43:34;;;;;;;8.15;3.50;;;;;;;;;;10438031;28;20056;-69
2021/12/03 08:48:39;;;;;;;6.15;3.10;;;;;;;;;;10441162;28;20432;-70
2021/12/03 08:59:06;;;;;;;10.02;4.53;;;;;;;;;;10430032;28;20041;-70
2021/12/03 09:04:09;;;;;;;8.20;4.57;;;;;;;;;;10439508;28;20043;-70
2021/12/03 09:09:12;;;;;;;8.52;5.38;;;;;;;;;;10439827;28;20521;-71
2021/12/03 09:14:21;;;;;;;7.87;4.47;;;;;;;;;;10435578;28;20052;-70
2021/12/03 09:19:28;;;;;;;7.85;4.25;;;;;;;;;;10437466;28;20052;-70
2021/12/03 09:24:34;;;;;;;6.88;3.90;;;;;;;;;;10438116;28;20064;-71
2021/12/03 09:29:40;;;;;;;4.93;2.45;;;;;;;;;;10446872;28;20049;-71
2021/12/03 09:34:43;;;;;;;11.27;4.63;;;;;;;;;;10437814;28;20112;-70
2021/12/03 09:39:46;;;;;;;7.03;3.77;;;;;;;;;;10436032;28;20435;-72
2021/12/03 09:44:51;;;;;;;9.53;4.33;;;;;;;;;;10440571;28;20045;-70
2021/12/03 09:49:56;;;;;;;5.07;2.97;;;;;;;;;;10434306;28;20033;-71
2021/12/03 09:55:01;;;;;;;3.50;2.05;;;;;;;;;;10437947;28;20051;-71
2021/12/03 10:16:19;;;;;;;9.45;4.18;;;;;;;;;;10440831;28;20129;-70
2021/12/03 10:21:51;;;;;;;8.35;3.85;;;;;;;;;;10436416;28;20037;-69
2021/12/03 10:32:38;;;;;;;4.30;2.45;;;;;;;;;;10434726;28;20041;-70
2021/12/03 10:43:34;;;;;;;5.35;3.83;;;;;;;;;;10379667;28;20088;-69
2021/12/03 10:48:48;;;;;;;6.97;4.20;;;;;;;;;;10423342;28;20052;-70
2021/12/03 10:53:57;;;;;;;4.40;3.38;;;;;;;;;;10435554;28;20106;-70
2021/12/03 11:37:21;;;;;;;2.92;1.95;;;;;;;;;;10415304;28;20041;-70
2021/12/03 12:43:16;;;;;;;3.53;1.42;;;;;;;;;;10428913;28;20063;-67
2021/12/03 13:15:59;;;;;;;5.30;2.28;;;;;;;;;;10431191;28;20033;-70
2021/12/03 13:27:14;;;;;;;5.05;1.98;;;;;;;;;;10438318;28;20421;-69
2021/12/03 14:10:45;;;;;;;1.70;1.13;;;;;;;;;;10598498;27;20474;-71
2021/12/03 14:42:58;;;;;;;2.53;1.43;;;;;;;;;;10573233;27;20512;-70
2021/12/03 14:53:54;;;;;;;2.73;1.40;;;;;;;;;;10616719;27;20490;-70
2021/12/03 14:59:07;;;;;;;3.80;1.70;;;;;;;;;;10581730;27;20072;-69
2021/12/03 15:04:31;;;;;;;2.60;1.50;;;;;;;;;;10597069;27;20119;-71
2021/12/03 15:09:37;;;;;;;1.52;0.98;;;;;;;;;;10587362;27;20482;-71
2021/12/03 15:25:28;;;;;;;3.33;1.70;;;;;;;;;;10578725;27;20045;-71
2021/12/03 15:35:56;;;;;;;3.57;1.83;;;;;;;;;;10595759;27;20043;-72
2021/12/03 15:52:27;;;;;;;7.43;2.70;;;;;;;;;;10585430;27;20150;-70
2021/12/03 16:08:14;;;;;;;7.63;1.77;;;;;;;;;;10557934;28;20088;-71
2021/12/03 16:13:33;;;;;;;2.27;1.20;;;;;;;;;;10549390;28;20483;-72
2021/12/03 16:18:59;;;;;;;6.00;2.43;;;;;;;;;;10553991;28;20055;-70
2021/12/03 16:46:08;;;;;;;7.20;2.63;;;;;;;;;;10559311;28;20050;-71
2021/12/03 16:51:27;;;;;;;14.17;3.50;;;;;;;;;;10557096;28;20042;-70
2021/12/03 16:56:29;;;;;;;9.13;3.37;;;;;;;;;;10562331;27;20085;-71
2021/12/03 17:01:39;;;;;;;1.67;0.60;;;;;;;;;;10557613;28;20031;-70
2021/12/03 17:07:22;;;;;;;8.47;2.40;;;;;;;;;;10556367;28;20517;-75
2021/12/03 17:44:55;;;;;;;9.53;3.23;;;;;;;;;;10564473;28;20539;-72
2021/12/03 17:50:10;;;;;;;8.07;2.87;;;;;;;;;;10559125;28;20035;-71
2021/12/03 17:55:25;;;;;;;6.70;2.67;;;;;;;;;;10549034;28;20047;-70
2021/12/03 18:00:34;;;;;;;12.53;4.30;;;;;;;;;;10555304;28;20051;-71
2021/12/03 18:11:27;;;;;;;3.53;1.67;;;;;;;;;;10551886;28;20036;-71
2021/12/03 18:49:01;;;;;;;7.70;2.67;;;;;;;;;;10548390;28;20157;-70
2021/12/03 18:59:27;;;;;;;15.50;5.73;;;;;;;;;;10533167;28;20047;-70
2021/12/03 19:04:33;;;;;;;;;;;;;;;;;;10556079;28;20387;-72
2021/12/03 19:09:42;;;;;;;7.73;2.60;;;;;;;;;;10552115;28;19939;-71
2021/12/03 19:14:50;;;;;;;6.20;2.50;;;;;;;;;;10550488;28;20042;-71
2021/12/03 19:19:56;;;;;;;10.30;3.50;;;;;;;;;;10551116;28;20043;-70
2021/12/03 19:25:01;;;;;;;5.23;2.80;;;;;;;;;;10556561;28;20135;-70
2021/12/03 19:30:05;;;;;;;10.17;4.70;;;;;;;;;;10557889;28;20360;-69
2021/12/03 19:35:08;;;;;;;10.23;4.30;;;;;;;;;;10561789;28;20851;-71
2021/12/03 19:40:13;;;;;;;7.57;2.70;;;;;;;;;;10551380;28;20122;-70
2021/12/03 19:45:19;;;;;;;5.23;1.73;;;;;;;;;;10562875;28;20048;-71
2021/12/03 19:50:28;;;;;;;7.87;4.10;;;;;;;;;;10557003;28;20093;-71
2021/12/03 19:55:32;;;;;;;6.43;3.40;;;;;;;;;;10566634;28;20047;-70
2021/12/03 20:00:35;;;;;;;8.50;3.40;;;;;;;;;;10550184;28;20032;-71
2021/12/03 20:05:39;;;;;;;9.20;2.83;;;;;;;;;;10556017;28;20407;-71
2021/12/03 20:10:46;;;;;;;14.30;4.47;;;;;;;;;;10556351;28;20742;-71
2021/12/03 20:15:57;;;;;;;7.67;3.30;;;;;;;;;;10554945;28;20039;-72
2021/12/03 20:21:00;;;;;;;8.90;3.87;;;;;;;;;;10555337;28;20035;-71
2021/12/03 20:26:23;;;;;;;3.97;2.00;;;;;;;;;;10559474;28;20446;-71
2021/12/03 20:31:28;;;;;;;11.07;4.40;;;;;;;;;;10557743;28;20093;-72
2021/12/03 20:36:46;;;;;;;9.57;3.90;;;;;;;;;;10549036;28;20052;-70
2021/12/03 20:41:59;;;;;;;6.70;2.70;;;;;;;;;;10555423;28;20040;-71
2021/12/03 20:47:24;;;;;;;3.40;2.00;;;;;;;;;;10554250;28;20134;-70
2021/12/03 20:52:44;;;;;;;4.70;2.10;;;;;;;;;;10563289;27;20124;-71
2021/12/03 21:08:40;;;;;;;4.33;2.30;;;;;;;;;;10559978;28;20051;-69
2021/12/03 21:13:46;;;;;;;4.47;2.13;;;;;;;;;;10563542;28;20043;-70
2021/12/03 21:19:03;;;;;;;8.67;2.60;;;;;;;;;;10556717;28;20070;-72
2021/12/03 21:24:08;;;;;;;6.37;2.23;;;;;;;;;;10556845;28;20341;-70
2021/12/03 21:29:21;;;;;;;5.05;2.13;;;;;;;;;;10560245;28;20036;-69
2021/12/03 21:40:08;;;;;;;6.33;2.27;;;;;;;;;;10554961;28;20176;-73
2021/12/03 21:45:13;;;;;;;7.27;1.87;;;;;;;;;;10560456;28;20051;-70
2021/12/03 21:50:16;;;;;;;5.87;1.77;;;;;;;;;;10548448;28;20043;-70
2021/12/03 21:55:21;;;;;;;1.80;1.00;;;;;;;;;;10551134;28;20472;-71
2021/12/03 22:00:26;;;;;;;2.43;1.40;;;;;;;;;;10556364;28;20043;-70
2021/12/03 22:05:28;;;;;;;1.13;0.77;;;;;;;;;;10553374;27;20456;-71
2021/12/03 22:10:32;;;;;;;5.23;1.57;;;;;;;;;;10547661;28;20134;-72
2021/12/03 22:15:41;;;;;;;2.17;1.20;;;;;;;;;;10553395;27;20044;-72
2021/12/03 22:20:45;;;;;;;4.30;2.20;;;;;;;;;;10560659;28;20389;-70
2021/12/03 22:25:48;;;;;;;2.38;0.88;;;;;;;;;;10557430;28;20046;-72
2021/12/03 22:30:52;;;;;;;2.37;1.37;;;;;;;;;;10553232;28;20063;-72
2021/12/03 22:35:55;;;;;;;;;;;;;;;;;;10561001;28;20097;-70
2021/12/03 22:40:58;;;;;;;7.50;2.90;;;;;;;;;;10554893;28;20263;-71
2021/12/03 22:46:05;;;;;;;3.50;1.90;;;;;;;;;;10554929;28;20067;-71
2021/12/03 22:51:30;;;;;;;5.87;1.97;;;;;;;;;;10557318;28;20067;-71
2021/12/03 22:56:50;;;;;;;3.50;1.53;;;;;;;;;;10554523;28;20035;-72
2021/12/03 23:01:54;;;;;;;7.87;1.77;;;;;;;;;;10554883;28;20453;-71
2021/12/03 23:06:57;;;;;;;3.77;1.27;;;;;;;;;;10553633;28;20044;-70
2021/12/03 23:12:02;;;;;;;3.03;1.13;;;;;;;;;;10552658;28;20580;-70
2021/12/03 23:17:08;;;;;;;3.37;1.33;;;;;;;;;;10560762;28;20051;-72
2021/12/03 23:22:11;;;;;;;4.33;1.60;;;;;;;;;;10568567;28;20028;-70
2021/12/03 23:27:14;;;;;;;0.97;0.63;;;;;;;;;;10572827;28;20087;-73
2021/12/03 23:32:21;;;;;;;5.70;1.50;;;;;;;;;;10576131;28;20035;-70
2021/12/03 23:37:24;;;;;;;2.93;1.40;;;;;;;;;;10560967;28;20406;-72
2021/12/03 23:42:27;;;;;;;3.70;1.07;;;;;;;;;;10565446;28;20035;-73
2021/12/03 23:47:31;;;;;;;0.50;0.50;;;;;;;;;;10566500;28;20105;-70
2021/12/03 23:52:34;;;;;;;1.67;1.10;;;;;;;;;;10555211;27;20467;-70
2021/12/03 23:57:38;;;;;;;0.63;0.37;;;;;;;;;;10558414;28;20074;-71
